sensor_id;sensor_type;location;lat;lon;timestamp;temperature;humidity
25024;DHT22;13033;50.936;5.334;2023-05-07T00:01:08;16.80;96.50
25024;DHT22;13033;50.936;5.334;2023-05-07T00:03:34;16.80;95.70
25024;DHT22;13033;50.936;5.334;2023-05-07T00:05:59;16.90;94.70
25024;DHT22;13033;50.936;5.334;2023-05-07T00:08:25;16.90;93.90
25024;DHT22;13033;50.936;5.334;2023-05-07T00:10:51;17.10;92.60
25024;DHT22;13033;50.936;5.334;2023-05-07T00:13:16;17.00;92.40
25024;DHT22;13033;50.936;5.334;2023-05-07T00:15:42;17.10;93.10
25024;DHT22;13033;50.936;5.334;2023-05-07T00:18:07;17.30;90.30
25024;DHT22;13033;50.936;5.334;2023-05-07T00:20:33;17.50;82.20
25024;DHT22;13033;50.936;5.334;2023-05-07T00:22:59;17.70;67.70
25024;DHT22;13033;50.936;5.334;2023-05-07T00:25:24;17.60;69.30
25024;DHT22;13033;50.936;5.334;2023-05-07T00:27:50;17.50;69.00
25024;DHT22;13033;50.936;5.334;2023-05-07T00:30:16;17.50;67.90
25024;DHT22;13033;50.936;5.334;2023-05-07T00:32:41;17.40;71.10
25024;DHT22;13033;50.936;5.334;2023-05-07T00:35:07;17.40;74.30
25024;DHT22;13033;50.936;5.334;2023-05-07T00:37:33;17.30;77.10
25024;DHT22;13033;50.936;5.334;2023-05-07T00:39:59;17.30;80.40
25024;DHT22;13033;50.936;5.334;2023-05-07T00:42:24;17.30;81.20
25024;DHT22;13033;50.936;5.334;2023-05-07T00:44:50;17.20;82.00
25024;DHT22;13033;50.936;5.334;2023-05-07T00:47:16;17.30;81.80
25024;DHT22;13033;50.936;5.334;2023-05-07T00:49:43;17.20;83.60
25024;DHT22;13033;50.936;5.334;2023-05-07T00:52:14;17.20;85.30
25024;DHT22;13033;50.936;5.334;2023-05-07T00:54:42;17.10;84.10
25024;DHT22;13033;50.936;5.334;2023-05-07T00:57:09;17.00;87.40
25024;DHT22;13033;50.936;5.334;2023-05-07T00:59:35;16.80;92.20
25024;DHT22;13033;50.936;5.334;2023-05-07T01:02:01;16.80;90.50
25024;DHT22;13033;50.936;5.334;2023-05-07T01:04:27;16.70;91.30
25024;DHT22;13033;50.936;5.334;2023-05-07T01:06:56;16.80;87.90
25024;DHT22;13033;50.936;5.334;2023-05-07T01:09:26;16.70;91.50
25024;DHT22;13033;50.936;5.334;2023-05-07T01:11:52;16.60;92.90
25024;DHT22;13033;50.936;5.334;2023-05-07T01:14:19;16.60;92.80
25024;DHT22;13033;50.936;5.334;2023-05-07T01:16:47;16.80;90.40
25024;DHT22;13033;50.936;5.334;2023-05-07T01:19:14;17.00;85.30
25024;DHT22;13033;50.936;5.334;2023-05-07T01:21:46;17.00;80.70
25024;DHT22;13033;50.936;5.334;2023-05-07T01:24:12;16.90;79.50
25024;DHT22;13033;50.936;5.334;2023-05-07T01:26:39;16.70;89.00
25024;DHT22;13033;50.936;5.334;2023-05-07T01:29:05;16.70;88.20
25024;DHT22;13033;50.936;5.334;2023-05-07T01:31:32;16.80;88.30
25024;DHT22;13033;50.936;5.334;2023-05-07T01:33:59;16.80;85.80
25024;DHT22;13033;50.936;5.334;2023-05-07T01:36:28;16.80;86.50
25024;DHT22;13033;50.936;5.334;2023-05-07T01:38:54;16.80;88.60
25024;DHT22;13033;50.936;5.334;2023-05-07T01:41:23;16.70;90.20
25024;DHT22;13033;50.936;5.334;2023-05-07T01:43:50;16.50;91.00
25024;DHT22;13033;50.936;5.334;2023-05-07T01:46:17;16.60;91.30
25024;DHT22;13033;50.936;5.334;2023-05-07T01:48:45;16.70;89.50
25024;DHT22;13033;50.936;5.334;2023-05-07T01:51:11;16.60;89.50
25024;DHT22;13033;50.936;5.334;2023-05-07T01:53:38;16.60;92.00
25024;DHT22;13033;50.936;5.334;2023-05-07T01:56:04;16.50;93.70
25024;DHT22;13033;50.936;5.334;2023-05-07T01:58:30;16.50;93.50
25024;DHT22;13033;50.936;5.334;2023-05-07T02:00:56;16.60;93.20
25024;DHT22;13033;50.936;5.334;2023-05-07T02:03:21;16.60;92.30
25024;DHT22;13033;50.936;5.334;2023-05-07T02:05:47;16.60;93.20
25024;DHT22;13033;50.936;5.334;2023-05-07T02:08:13;16.60;93.30
25024;DHT22;13033;50.936;5.334;2023-05-07T02:10:39;16.40;94.00
25024;DHT22;13033;50.936;5.334;2023-05-07T02:13:04;16.50;93.60
25024;DHT22;13033;50.936;5.334;2023-05-07T02:15:30;16.60;93.30
25024;DHT22;13033;50.936;5.334;2023-05-07T02:18:01;16.60;90.70
25024;DHT22;13033;50.936;5.334;2023-05-07T02:20:27;16.60;91.30
25024;DHT22;13033;50.936;5.334;2023-05-07T02:22:53;16.50;92.00
25024;DHT22;13033;50.936;5.334;2023-05-07T02:25:18;16.30;94.20
25024;DHT22;13033;50.936;5.334;2023-05-07T02:27:44;16.20;97.20
25024;DHT22;13033;50.936;5.334;2023-05-07T02:30:10;16.10;98.80
25024;DHT22;13033;50.936;5.334;2023-05-07T02:32:36;16.20;98.50
25024;DHT22;13033;50.936;5.334;2023-05-07T02:35:01;16.20;98.40
25024;DHT22;13033;50.936;5.334;2023-05-07T02:37:27;16.30;98.70
25024;DHT22;13033;50.936;5.334;2023-05-07T02:39:53;16.40;97.30
25024;DHT22;13033;50.936;5.334;2023-05-07T02:42:18;16.50;95.40
25024;DHT22;13033;50.936;5.334;2023-05-07T02:44:44;16.60;93.60
25024;DHT22;13033;50.936;5.334;2023-05-07T02:47:10;16.70;90.90
25024;DHT22;13033;50.936;5.334;2023-05-07T02:49:35;16.80;90.40
25024;DHT22;13033;50.936;5.334;2023-05-07T02:52:01;16.70;91.00
25024;DHT22;13033;50.936;5.334;2023-05-07T02:54:26;16.60;92.10
25024;DHT22;13033;50.936;5.334;2023-05-07T02:56:52;16.60;92.60
25024;DHT22;13033;50.936;5.334;2023-05-07T02:59:18;16.60;92.10
25024;DHT22;13033;50.936;5.334;2023-05-07T03:01:43;16.50;94.00
25024;DHT22;13033;50.936;5.334;2023-05-07T03:04:10;16.60;93.30
25024;DHT22;13033;50.936;5.334;2023-05-07T03:06:36;16.70;90.70
25024;DHT22;13033;50.936;5.334;2023-05-07T03:09:02;16.80;88.20
25024;DHT22;13033;50.936;5.334;2023-05-07T03:11:27;16.90;81.90
25024;DHT22;13033;50.936;5.334;2023-05-07T03:13:53;16.80;87.20
25024;DHT22;13033;50.936;5.334;2023-05-07T03:16:19;16.70;88.20
25024;DHT22;13033;50.936;5.334;2023-05-07T03:18:45;16.80;87.90
25024;DHT22;13033;50.936;5.334;2023-05-07T03:21:10;16.60;90.90
25024;DHT22;13033;50.936;5.334;2023-05-07T03:23:36;16.50;93.50
25024;DHT22;13033;50.936;5.334;2023-05-07T03:26:02;16.40;94.40
25024;DHT22;13033;50.936;5.334;2023-05-07T03:28:27;16.50;94.10
25024;DHT22;13033;50.936;5.334;2023-05-07T03:30:53;16.60;92.20
25024;DHT22;13033;50.936;5.334;2023-05-07T03:33:19;16.40;92.90
25024;DHT22;13033;50.936;5.334;2023-05-07T03:35:44;16.50;94.40
25024;DHT22;13033;50.936;5.334;2023-05-07T03:38:10;16.50;93.60
25024;DHT22;13033;50.936;5.334;2023-05-07T03:40:36;16.40;93.80
25024;DHT22;13033;50.936;5.334;2023-05-07T03:43:02;16.50;94.80
25024;DHT22;13033;50.936;5.334;2023-05-07T03:45:27;16.50;95.10
25024;DHT22;13033;50.936;5.334;2023-05-07T03:47:53;16.50;94.30
25024;DHT22;13033;50.936;5.334;2023-05-07T03:50:19;16.50;94.70
25024;DHT22;13033;50.936;5.334;2023-05-07T03:52:45;16.50;94.60
25024;DHT22;13033;50.936;5.334;2023-05-07T03:55:11;16.50;94.50
25024;DHT22;13033;50.936;5.334;2023-05-07T03:57:36;16.60;93.20
25024;DHT22;13033;50.936;5.334;2023-05-07T04:00:02;16.80;92.40
25024;DHT22;13033;50.936;5.334;2023-05-07T04:02:29;16.80;89.80
25024;DHT22;13033;50.936;5.334;2023-05-07T04:04:55;16.90;89.60
25024;DHT22;13033;50.936;5.334;2023-05-07T04:07:21;16.70;91.60
25024;DHT22;13033;50.936;5.334;2023-05-07T04:09:47;16.60;94.40
25024;DHT22;13033;50.936;5.334;2023-05-07T04:12:12;16.60;95.20
25024;DHT22;13033;50.936;5.334;2023-05-07T04:14:38;16.60;94.70
25024;DHT22;13033;50.936;5.334;2023-05-07T04:17:04;16.80;92.50
25024;DHT22;13033;50.936;5.334;2023-05-07T04:19:33;16.90;91.30
25024;DHT22;13033;50.936;5.334;2023-05-07T04:21:59;16.90;91.30
25024;DHT22;13033;50.936;5.334;2023-05-07T04:24:24;16.90;90.30
25024;DHT22;13033;50.936;5.334;2023-05-07T04:26:50;17.00;88.20
25024;DHT22;13033;50.936;5.334;2023-05-07T04:29:16;17.00;86.60
25024;DHT22;13033;50.936;5.334;2023-05-07T04:31:42;17.10;84.00
25024;DHT22;13033;50.936;5.334;2023-05-07T04:34:10;17.10;82.20
25024;DHT22;13033;50.936;5.334;2023-05-07T04:36:37;17.20;77.30
25024;DHT22;13033;50.936;5.334;2023-05-07T04:39:03;17.20;73.80
25024;DHT22;13033;50.936;5.334;2023-05-07T04:41:29;17.10;75.90
25024;DHT22;13033;50.936;5.334;2023-05-07T04:43:55;17.00;80.60
25024;DHT22;13033;50.936;5.334;2023-05-07T04:46:22;17.00;81.30
25024;DHT22;13033;50.936;5.334;2023-05-07T04:48:49;17.10;78.70
25024;DHT22;13033;50.936;5.334;2023-05-07T04:51:15;17.10;78.90
25024;DHT22;13033;50.936;5.334;2023-05-07T04:53:40;17.10;77.60
25024;DHT22;13033;50.936;5.334;2023-05-07T04:56:06;17.00;82.20
25024;DHT22;13033;50.936;5.334;2023-05-07T04:58:32;16.80;87.90
25024;DHT22;13033;50.936;5.334;2023-05-07T05:00:58;17.00;84.20
25024;DHT22;13033;50.936;5.334;2023-05-07T05:03:24;17.00;82.40
25024;DHT22;13033;50.936;5.334;2023-05-07T05:05:51;17.00;82.40
25024;DHT22;13033;50.936;5.334;2023-05-07T05:08:17;17.00;81.00
25024;DHT22;13033;50.936;5.334;2023-05-07T05:10:43;16.90;81.20
25024;DHT22;13033;50.936;5.334;2023-05-07T05:13:09;17.00;83.50
25024;DHT22;13033;50.936;5.334;2023-05-07T05:15:35;17.10;75.80
25024;DHT22;13033;50.936;5.334;2023-05-07T05:18:00;17.10;73.40
25024;DHT22;13033;50.936;5.334;2023-05-07T05:20:26;17.00;77.90
25024;DHT22;13033;50.936;5.334;2023-05-07T05:22:52;16.90;81.10
25024;DHT22;13033;50.936;5.334;2023-05-07T05:25:17;16.90;82.60
25024;DHT22;13033;50.936;5.334;2023-05-07T05:27:43;16.90;82.20
25024;DHT22;13033;50.936;5.334;2023-05-07T05:30:09;17.00;79.50
25024;DHT22;13033;50.936;5.334;2023-05-07T05:32:35;17.20;74.30
25024;DHT22;13033;50.936;5.334;2023-05-07T05:35:00;17.20;71.90
25024;DHT22;13033;50.936;5.334;2023-05-07T05:37:26;17.20;72.00
25024;DHT22;13033;50.936;5.334;2023-05-07T05:39:52;17.20;74.00
25024;DHT22;13033;50.936;5.334;2023-05-07T05:42:20;17.10;72.60
25024;DHT22;13033;50.936;5.334;2023-05-07T05:44:45;17.30;71.50
25024;DHT22;13033;50.936;5.334;2023-05-07T05:47:11;17.50;61.20
25024;DHT22;13033;50.936;5.334;2023-05-07T05:49:37;17.60;50.50
25024;DHT22;13033;50.936;5.334;2023-05-07T05:52:02;17.60;54.60
25024;DHT22;13033;50.936;5.334;2023-05-07T05:54:28;17.80;50.30
25024;DHT22;13033;50.936;5.334;2023-05-07T05:56:54;18.10;34.60
25024;DHT22;13033;50.936;5.334;2023-05-07T05:59:19;18.30;25.80
25024;DHT22;13033;50.936;5.334;2023-05-07T06:01:45;18.40;18.50
25024;DHT22;13033;50.936;5.334;2023-05-07T06:04:11;18.40;21.00
25024;DHT22;13033;50.936;5.334;2023-05-07T06:06:36;18.50;19.70
25024;DHT22;13033;50.936;5.334;2023-05-07T06:09:02;18.50;18.00
25024;DHT22;13033;50.936;5.334;2023-05-07T06:11:28;18.60;11.80
25024;DHT22;13033;50.936;5.334;2023-05-07T06:13:54;18.60;13.80
25024;DHT22;13033;50.936;5.334;2023-05-07T06:16:19;18.50;17.20
25024;DHT22;13033;50.936;5.334;2023-05-07T06:18:45;18.60;14.70
25024;DHT22;13033;50.936;5.334;2023-05-07T06:21:13;18.80;9.10
25024;DHT22;13033;50.936;5.334;2023-05-07T06:23:38;18.80;3.90
25024;DHT22;13033;50.936;5.334;2023-05-07T06:26:06;18.70;5.50
25024;DHT22;13033;50.936;5.334;2023-05-07T06:28:32;18.70;5.50
25024;DHT22;13033;50.936;5.334;2023-05-07T06:31:18;18.90;1.30
25024;DHT22;13033;50.936;5.334;2023-05-07T06:33:46;18.70;1.00
25024;DHT22;13033;50.936;5.334;2023-05-07T06:36:12;18.90;1.00
25024;DHT22;13033;50.936;5.334;2023-05-07T06:38:37;19.00;1.00
25024;DHT22;13033;50.936;5.334;2023-05-07T06:41:05;18.90;1.00
25024;DHT22;13033;50.936;5.334;2023-05-07T06:43:30;19.00;1.00
25024;DHT22;13033;50.936;5.334;2023-05-07T06:45:56;19.10;1.00
25024;DHT22;13033;50.936;5.334;2023-05-07T06:48:22;19.10;1.00
25024;DHT22;13033;50.936;5.334;2023-05-07T06:50:47;19.10;1.00
25024;DHT22;13033;50.936;5.334;2023-05-07T06:53:13;19.20;1.00
25024;DHT22;13033;50.936;5.334;2023-05-07T06:55:39;19.30;1.00
25024;DHT22;13033;50.936;5.334;2023-05-07T06:58:04;19.10;1.00
25024;DHT22;13033;50.936;5.334;2023-05-07T07:00:31;19.10;1.00
25024;DHT22;13033;50.936;5.334;2023-05-07T07:02:57;18.70;1.00
25024;DHT22;13033;50.936;5.334;2023-05-07T07:05:22;18.90;1.00
25024;DHT22;13033;50.936;5.334;2023-05-07T07:07:50;19.20;1.00
25024;DHT22;13033;50.936;5.334;2023-05-07T07:10:24;19.50;1.00
25024;DHT22;13033;50.936;5.334;2023-05-07T07:12:50;19.60;1.00
25024;DHT22;13033;50.936;5.334;2023-05-07T07:15:18;19.90;1.00
25024;DHT22;13033;50.936;5.334;2023-05-07T07:17:43;20.10;1.00
25024;DHT22;13033;50.936;5.334;2023-05-07T07:20:09;20.20;1.00
25024;DHT22;13033;50.936;5.334;2023-05-07T07:22:35;20.20;1.00
25024;DHT22;13033;50.936;5.334;2023-05-07T07:25:01;20.40;1.00
25024;DHT22;13033;50.936;5.334;2023-05-07T07:27:26;20.40;1.00
25024;DHT22;13033;50.936;5.334;2023-05-07T07:29:52;20.50;1.00
25024;DHT22;13033;50.936;5.334;2023-05-07T07:32:18;20.60;1.00
25024;DHT22;13033;50.936;5.334;2023-05-07T07:34:43;20.50;1.00
25024;DHT22;13033;50.936;5.334;2023-05-07T07:37:09;20.50;1.00
25024;DHT22;13033;50.936;5.334;2023-05-07T07:39:35;20.60;1.00
25024;DHT22;13033;50.936;5.334;2023-05-07T07:42:03;20.70;1.00
25024;DHT22;13033;50.936;5.334;2023-05-07T07:44:28;21.10;1.00
25024;DHT22;13033;50.936;5.334;2023-05-07T07:46:54;21.40;1.00
25024;DHT22;13033;50.936;5.334;2023-05-07T07:49:20;21.50;1.00
25024;DHT22;13033;50.936;5.334;2023-05-07T07:51:45;21.80;1.00
25024;DHT22;13033;50.936;5.334;2023-05-07T07:54:11;21.70;99.90
25024;DHT22;13033;50.936;5.334;2023-05-07T07:56:37;21.50;1.00
25024;DHT22;13033;50.936;5.334;2023-05-07T07:59:03;21.70;1.00
25024;DHT22;13033;50.936;5.334;2023-05-07T08:01:31;21.80;1.00
25024;DHT22;13033;50.936;5.334;2023-05-07T08:04:03;22.00;1.00
25024;DHT22;13033;50.936;5.334;2023-05-07T08:06:30;22.20;99.90
25024;DHT22;13033;50.936;5.334;2023-05-07T08:08:56;22.30;99.90
25024;DHT22;13033;50.936;5.334;2023-05-07T08:11:22;22.20;99.90
25024;DHT22;13033;50.936;5.334;2023-05-07T08:13:47;22.00;99.90
25024;DHT22;13033;50.936;5.334;2023-05-07T08:16:13;22.00;99.90
25024;DHT22;13033;50.936;5.334;2023-05-07T08:18:39;22.30;99.90
25024;DHT22;13033;50.936;5.334;2023-05-07T08:21:05;22.40;1.00
25024;DHT22;13033;50.936;5.334;2023-05-07T08:23:31;22.50;1.00
25024;DHT22;13033;50.936;5.334;2023-05-07T08:25:57;22.60;1.00
25024;DHT22;13033;50.936;5.334;2023-05-07T08:28:22;22.90;1.00
25024;DHT22;13033;50.936;5.334;2023-05-07T08:30:50;22.80;99.90
25024;DHT22;13033;50.936;5.334;2023-05-07T08:33:16;22.80;99.90
25024;DHT22;13033;50.936;5.334;2023-05-07T08:35:41;22.50;1.00
25024;DHT22;13033;50.936;5.334;2023-05-07T08:38:07;22.70;1.00
25024;DHT22;13033;50.936;5.334;2023-05-07T08:40:36;22.90;99.90
25024;DHT22;13033;50.936;5.334;2023-05-07T08:43:03;23.00;99.90
25024;DHT22;13033;50.936;5.334;2023-05-07T08:45:32;23.00;99.90
25024;DHT22;13033;50.936;5.334;2023-05-07T08:47:59;22.60;1.00
25024;DHT22;13033;50.936;5.334;2023-05-07T08:50:27;22.60;1.00
25024;DHT22;13033;50.936;5.334;2023-05-07T08:52:53;22.50;1.00
25024;DHT22;13033;50.936;5.334;2023-05-07T08:55:18;22.50;1.00
25024;DHT22;13033;50.936;5.334;2023-05-07T08:57:45;22.40;1.00
25024;DHT22;13033;50.936;5.334;2023-05-07T09:00:12;22.00;99.90
25024;DHT22;13033;50.936;5.334;2023-05-07T09:02:38;22.00;99.90
25024;DHT22;13033;50.936;5.334;2023-05-07T09:05:04;22.20;99.90
25024;DHT22;13033;50.936;5.334;2023-05-07T09:07:30;22.30;50.00
25024;DHT22;13033;50.936;5.334;2023-05-07T09:09:56;22.60;1.00
25024;DHT22;13033;50.936;5.334;2023-05-07T09:12:23;23.00;99.90
25024;DHT22;13033;50.936;5.334;2023-05-07T09:14:49;23.10;1.00
25024;DHT22;13033;50.936;5.334;2023-05-07T09:17:16;23.10;1.00
25024;DHT22;13033;50.936;5.334;2023-05-07T09:19:46;23.10;1.00
25024;DHT22;13033;50.936;5.334;2023-05-07T09:22:12;23.10;1.00
25024;DHT22;13033;50.936;5.334;2023-05-07T09:24:38;22.90;77.30
25024;DHT22;13033;50.936;5.334;2023-05-07T09:27:05;22.90;99.90
25024;DHT22;13033;50.936;5.334;2023-05-07T09:29:31;22.90;99.90
25024;DHT22;13033;50.936;5.334;2023-05-07T09:32:05;22.70;99.90
25024;DHT22;13033;50.936;5.334;2023-05-07T09:34:31;22.80;1.00
25024;DHT22;13033;50.936;5.334;2023-05-07T09:37:04;23.00;99.90
25024;DHT22;13033;50.936;5.334;2023-05-07T09:39:47;23.20;99.90
25024;DHT22;13033;50.936;5.334;2023-05-07T09:42:12;23.10;99.90
25024;DHT22;13033;50.936;5.334;2023-05-07T09:44:40;23.10;99.90
25024;DHT22;13033;50.936;5.334;2023-05-07T09:47:06;22.90;99.90
25024;DHT22;13033;50.936;5.334;2023-05-07T09:49:39;23.10;99.90
25024;DHT22;13033;50.936;5.334;2023-05-07T09:52:07;23.40;1.00
25024;DHT22;13033;50.936;5.334;2023-05-07T09:54:35;23.20;1.00
25024;DHT22;13033;50.936;5.334;2023-05-07T09:57:03;23.00;1.00
25024;DHT22;13033;50.936;5.334;2023-05-07T09:59:33;23.20;99.90
25024;DHT22;13033;50.936;5.334;2023-05-07T10:02:01;23.10;99.90
25024;DHT22;13033;50.936;5.334;2023-05-07T10:04:27;22.80;99.90
25024;DHT22;13033;50.936;5.334;2023-05-07T10:06:53;22.60;99.90
25024;DHT22;13033;50.936;5.334;2023-05-07T10:09:21;22.50;1.00
25024;DHT22;13033;50.936;5.334;2023-05-07T10:11:49;22.50;94.80
25024;DHT22;13033;50.936;5.334;2023-05-07T10:14:14;22.20;88.90
25024;DHT22;13033;50.936;5.334;2023-05-07T10:16:40;21.70;1.00
25024;DHT22;13033;50.936;5.334;2023-05-07T10:19:08;21.60;99.90
25024;DHT22;13033;50.936;5.334;2023-05-07T10:21:38;21.50;99.90
25024;DHT22;13033;50.936;5.334;2023-05-07T10:24:22;21.60;72.50
25024;DHT22;13033;50.936;5.334;2023-05-07T10:26:51;21.40;99.90
25024;DHT22;13033;50.936;5.334;2023-05-07T10:34:43;21.30;99.90
25024;DHT22;13033;50.936;5.334;2023-05-07T10:37:10;21.20;99.90
25024;DHT22;13033;50.936;5.334;2023-05-07T10:39:37;21.10;99.90
25024;DHT22;13033;50.936;5.334;2023-05-07T10:42:09;21.20;99.90
25024;DHT22;13033;50.936;5.334;2023-05-07T10:44:35;21.00;1.00
25024;DHT22;13033;50.936;5.334;2023-05-07T10:47:06;20.90;1.00
25024;DHT22;13033;50.936;5.334;2023-05-07T10:50:03;21.10;1.00
25024;DHT22;13033;50.936;5.334;2023-05-07T10:52:23;21.10;1.00
25024;DHT22;13033;50.936;5.334;2023-05-07T10:57:46;20.80;1.00
25024;DHT22;13033;50.936;5.334;2023-05-07T11:05:25;21.00;1.00
25024;DHT22;13033;50.936;5.334;2023-05-07T11:08:02;20.70;1.00
25024;DHT22;13033;50.936;5.334;2023-05-07T11:13:16;21.10;1.00
25024;DHT22;13033;50.936;5.334;2023-05-07T11:15:44;21.00;1.00
25024;DHT22;13033;50.936;5.334;2023-05-07T11:18:15;20.80;1.00
25024;DHT22;13033;50.936;5.334;2023-05-07T11:20:55;20.70;1.00
25024;DHT22;13033;50.936;5.334;2023-05-07T11:26:05;20.70;1.00
25024;DHT22;13033;50.936;5.334;2023-05-07T11:28:37;20.40;1.00
25024;DHT22;13033;50.936;5.334;2023-05-07T11:31:03;20.20;1.00
25024;DHT22;13033;50.936;5.334;2023-05-07T11:33:30;20.10;1.00
25024;DHT22;13033;50.936;5.334;2023-05-07T11:35:56;19.90;5.40
25024;DHT22;13033;50.936;5.334;2023-05-07T11:38:22;19.80;21.20
25024;DHT22;13033;50.936;5.334;2023-05-07T11:40:56;19.60;40.80
25024;DHT22;13033;50.936;5.334;2023-05-07T11:43:21;19.60;35.20
25024;DHT22;13033;50.936;5.334;2023-05-07T11:45:48;19.50;29.50
25024;DHT22;13033;50.936;5.334;2023-05-07T11:48:15;19.40;25.40
25024;DHT22;13033;50.936;5.334;2023-05-07T11:50:51;19.40;26.70
25024;DHT22;13033;50.936;5.334;2023-05-07T11:53:22;19.30;36.40
25024;DHT22;13033;50.936;5.334;2023-05-07T11:55:52;19.30;35.20
25024;DHT22;13033;50.936;5.334;2023-05-07T11:58:22;19.40;33.90
25024;DHT22;13033;50.936;5.334;2023-05-07T12:00:52;19.40;39.20
25024;DHT22;13033;50.936;5.334;2023-05-07T12:03:18;19.50;46.40
25024;DHT22;13033;50.936;5.334;2023-05-07T12:05:45;19.50;43.00
25024;DHT22;13033;50.936;5.334;2023-05-07T12:08:15;19.50;49.70
25024;DHT22;13033;50.936;5.334;2023-05-07T12:10:45;19.50;35.80
25024;DHT22;13033;50.936;5.334;2023-05-07T12:13:18;19.40;34.50
25024;DHT22;13033;50.936;5.334;2023-05-07T12:15:43;19.40;40.70
25024;DHT22;13033;50.936;5.334;2023-05-07T12:18:10;19.30;53.60
25024;DHT22;13033;50.936;5.334;2023-05-07T12:20:36;19.40;45.30
25024;DHT22;13033;50.936;5.334;2023-05-07T12:23:02;19.40;42.70
25024;DHT22;13033;50.936;5.334;2023-05-07T12:25:35;19.40;52.30
25024;DHT22;13033;50.936;5.334;2023-05-07T12:28:05;19.40;55.80
25024;DHT22;13033;50.936;5.334;2023-05-07T12:30:40;19.50;52.60
25024;DHT22;13033;50.936;5.334;2023-05-07T12:33:06;19.50;59.90
25024;DHT22;13033;50.936;5.334;2023-05-07T12:35:37;19.70;46.80
25024;DHT22;13033;50.936;5.334;2023-05-07T12:38:08;19.90;29.00
25024;DHT22;13033;50.936;5.334;2023-05-07T12:40:39;19.90;19.80
25024;DHT22;13033;50.936;5.334;2023-05-07T12:43:06;19.90;30.30
25024;DHT22;13033;50.936;5.334;2023-05-07T12:45:35;20.10;31.70
25024;DHT22;13033;50.936;5.334;2023-05-07T12:48:02;20.40;12.60
25024;DHT22;13033;50.936;5.334;2023-05-07T12:50:31;20.50;1.00
25024;DHT22;13033;50.936;5.334;2023-05-07T12:52:58;20.40;1.00
25024;DHT22;13033;50.936;5.334;2023-05-07T12:55:24;20.40;1.00
25024;DHT22;13033;50.936;5.334;2023-05-07T12:57:50;20.70;1.00
25024;DHT22;13033;50.936;5.334;2023-05-07T13:00:17;20.80;1.00
25024;DHT22;13033;50.936;5.334;2023-05-07T13:02:43;20.70;1.00
25024;DHT22;13033;50.936;5.334;2023-05-07T13:05:09;20.80;1.00
25024;DHT22;13033;50.936;5.334;2023-05-07T13:07:35;20.90;1.00
25024;DHT22;13033;50.936;5.334;2023-05-07T13:10:02;20.80;1.00
25024;DHT22;13033;50.936;5.334;2023-05-07T13:12:28;20.90;1.00
25024;DHT22;13033;50.936;5.334;2023-05-07T13:14:53;20.80;1.00
25024;DHT22;13033;50.936;5.334;2023-05-07T13:17:19;20.80;1.00
25024;DHT22;13033;50.936;5.334;2023-05-07T13:19:45;20.80;1.00
25024;DHT22;13033;50.936;5.334;2023-05-07T13:22:10;20.90;1.00
25024;DHT22;13033;50.936;5.334;2023-05-07T13:24:36;20.90;1.00
25024;DHT22;13033;50.936;5.334;2023-05-07T13:27:02;21.00;1.00
25024;DHT22;13033;50.936;5.334;2023-05-07T13:29:28;21.00;1.00
25024;DHT22;13033;50.936;5.334;2023-05-07T13:31:58;21.10;1.00
25024;DHT22;13033;50.936;5.334;2023-05-07T13:34:25;21.20;1.00
25024;DHT22;13033;50.936;5.334;2023-05-07T13:36:51;21.30;1.00
25024;DHT22;13033;50.936;5.334;2023-05-07T13:39:17;21.20;1.00
25024;DHT22;13033;50.936;5.334;2023-05-07T13:41:43;21.20;1.00
25024;DHT22;13033;50.936;5.334;2023-05-07T13:44:08;21.30;1.00
25024;DHT22;13033;50.936;5.334;2023-05-07T13:46:34;21.50;1.00
25024;DHT22;13033;50.936;5.334;2023-05-07T13:48:59;21.50;1.00
25024;DHT22;13033;50.936;5.334;2023-05-07T13:51:25;21.30;1.00
25024;DHT22;13033;50.936;5.334;2023-05-07T13:53:51;21.40;1.00
25024;DHT22;13033;50.936;5.334;2023-05-07T13:56:17;21.30;1.00
25024;DHT22;13033;50.936;5.334;2023-05-07T13:58:43;21.30;1.00
25024;DHT22;13033;50.936;5.334;2023-05-07T14:01:09;21.30;1.00
25024;DHT22;13033;50.936;5.334;2023-05-07T14:03:34;21.30;1.00
25024;DHT22;13033;50.936;5.334;2023-05-07T14:06:03;21.40;1.00
25024;DHT22;13033;50.936;5.334;2023-05-07T14:08:29;21.50;1.00
25024;DHT22;13033;50.936;5.334;2023-05-07T14:10:55;21.50;1.00
25024;DHT22;13033;50.936;5.334;2023-05-07T14:13:20;21.60;1.00
25024;DHT22;13033;50.936;5.334;2023-05-07T14:15:46;21.40;1.00
25024;DHT22;13033;50.936;5.334;2023-05-07T14:18:14;21.40;1.00
25024;DHT22;13033;50.936;5.334;2023-05-07T14:20:39;21.30;1.00
25024;DHT22;13033;50.936;5.334;2023-05-07T14:23:05;21.30;1.00
25024;DHT22;13033;50.936;5.334;2023-05-07T14:25:30;21.60;1.00
25024;DHT22;13033;50.936;5.334;2023-05-07T14:27:56;21.60;1.00
25024;DHT22;13033;50.936;5.334;2023-05-07T14:30:22;21.40;1.00
25024;DHT22;13033;50.936;5.334;2023-05-07T14:32:50;21.40;1.00
25024;DHT22;13033;50.936;5.334;2023-05-07T14:35:16;21.50;1.00
25024;DHT22;13033;50.936;5.334;2023-05-07T14:37:42;21.50;1.00
25024;DHT22;13033;50.936;5.334;2023-05-07T14:40:08;21.40;1.00
25024;DHT22;13033;50.936;5.334;2023-05-07T14:42:34;21.20;1.00
25024;DHT22;13033;50.936;5.334;2023-05-07T14:45:00;21.10;1.00
25024;DHT22;13033;50.936;5.334;2023-05-07T14:47:25;21.00;1.00
25024;DHT22;13033;50.936;5.334;2023-05-07T14:49:51;21.00;1.00
25024;DHT22;13033;50.936;5.334;2023-05-07T14:52:18;21.00;1.00
25024;DHT22;13033;50.936;5.334;2023-05-07T14:54:44;21.10;1.00
25024;DHT22;13033;50.936;5.334;2023-05-07T14:57:10;21.10;1.00
25024;DHT22;13033;50.936;5.334;2023-05-07T14:59:39;21.10;1.00
25024;DHT22;13033;50.936;5.334;2023-05-07T15:02:05;21.30;1.00
25024;DHT22;13033;50.936;5.334;2023-05-07T15:04:33;21.60;1.00
25024;DHT22;13033;50.936;5.334;2023-05-07T15:06:59;21.40;1.00
25024;DHT22;13033;50.936;5.334;2023-05-07T15:09:25;21.30;1.00
25024;DHT22;13033;50.936;5.334;2023-05-07T15:11:51;21.60;1.00
25024;DHT22;13033;50.936;5.334;2023-05-07T15:14:17;21.70;1.00
25024;DHT22;13033;50.936;5.334;2023-05-07T15:16:42;21.60;1.00
25024;DHT22;13033;50.936;5.334;2023-05-07T15:19:08;21.40;1.00
25024;DHT22;13033;50.936;5.334;2023-05-07T15:21:34;21.30;1.00
25024;DHT22;13033;50.936;5.334;2023-05-07T15:24:04;21.30;1.00
25024;DHT22;13033;50.936;5.334;2023-05-07T15:26:30;21.30;1.00
25024;DHT22;13033;50.936;5.334;2023-05-07T15:28:55;21.50;1.00
25024;DHT22;13033;50.936;5.334;2023-05-07T15:31:23;21.50;1.00
25024;DHT22;13033;50.936;5.334;2023-05-07T15:33:49;21.70;1.00
25024;DHT22;13033;50.936;5.334;2023-05-07T15:36:17;21.80;1.00
25024;DHT22;13033;50.936;5.334;2023-05-07T15:38:43;21.80;1.00
25024;DHT22;13033;50.936;5.334;2023-05-07T15:41:09;21.80;1.00
25024;DHT22;13033;50.936;5.334;2023-05-07T15:43:44;21.90;1.00
25024;DHT22;13033;50.936;5.334;2023-05-07T15:46:11;21.90;1.00
25024;DHT22;13033;50.936;5.334;2023-05-07T15:48:36;21.70;1.00
25024;DHT22;13033;50.936;5.334;2023-05-07T15:51:02;21.70;1.00
25024;DHT22;13033;50.936;5.334;2023-05-07T15:53:29;21.80;1.00